This is the latest recevied weather packets stored in our database for station/object OK1JIL-13. If no packets are shown the sender has not sent any weather packets the latest 1 day(s).
| Time | Temp. | Humidity | Pressure | Rain* | Wind** | Luminosity | Snow |
|---|---|---|---|---|---|---|---|
| 1778018394 | 15° C | 62% | 1006.9 hPa | - | - | - | - |
| 1778017794 | 14.44° C | 63% | 1006.9 hPa | - | - | - | - |
| 1778017194 | 15° C | 61% | 1006.9 hPa | - | - | - | - |
| 1778016594 | 15° C | 61% | 1007.1 hPa | - | - | - | - |
| 1778014794 | 15° C | 63% | 1007.1 hPa | - | - | - | - |
| 1778014195 | 15° C | 64% | 1007.1 hPa | - | - | - | - |
| 1778012394 | 15.56° C | 65% | 1007.4 hPa | - | - | - | - |
| 1778011194 | 16.11° C | 64% | 1007.5 hPa | - | - | - | - |
| 1778010594 | 16.67° C | 60% | 1007.6 hPa | - | - | - | - |
| 1778009994 | 16.67° C | 58% | 1007.7 hPa | - | - | - | - |
| 1778009394 | 17.22° C | 59% | 1007.9 hPa | - | - | - | - |
| 1778008794 | 16.67° C | 60% | 1008.2 hPa | - | - | - | - |
| 1778008194 | 17.22° C | 56% | 1008.3 hPa | - | - | - | - |
| 1778007594 | 17.78° C | 53% | 1008.2 hPa | - | - | - | - |
| 1778006994 | 17.78° C | 53% | 1008.2 hPa | - | - | - | - |
| 1778006394 | 18.33° C | 50% | 1008.1 hPa | - | - | - | - |
| 1778005794 | 19.44° C | 46% | 1007.8 hPa | - | - | - | - |
| 1778003994 | 17.22° C | 58% | 1007.6 hPa | - | - | - | - |
| 1778002794 | 17.78° C | 56% | 1007.6 hPa | - | - | - | - |
| 1778002194 | 17.22° C | 57% | 1007.7 hPa | - | - | - | - |
| 1778001594 | 18.89° C | 53% | 1007.9 hPa | - | - | - | - |
| 1777997394 | 19.44° C | 43% | 1008.2 hPa | - | - | - | - |
* Rain since midnight (hover to see other rain measurements)
** Current wind speed in m/s (hover to see current wind gust speed)